sensor_id;sensor_type;location;lat;lon;timestamp;temperature;humidity
26272;DHT22;13997;48.902;12.472;2023-01-24T00:00:58;26.30;2201.60
26272;DHT22;13997;48.902;12.472;2023-01-24T00:03:24;26.30;2201.60
26272;DHT22;13997;48.902;12.472;2023-01-24T00:05:50;26.30;2201.60
26272;DHT22;13997;48.902;12.472;2023-01-24T00:08:17;26.40;2201.60
26272;DHT22;13997;48.902;12.472;2023-01-24T00:10:44;26.40;2201.60
26272;DHT22;13997;48.902;12.472;2023-01-24T00:13:12;26.50;2201.60
26272;DHT22;13997;48.902;12.472;2023-01-24T00:15:38;26.50;2201.60
26272;DHT22;13997;48.902;12.472;2023-01-24T00:18:03;51.20;2227.20
26272;DHT22;13997;48.902;12.472;2023-01-24T00:20:29;51.20;2227.20
26272;DHT22;13997;48.902;12.472;2023-01-24T00:22:55;51.20;2227.20
26272;DHT22;13997;48.902;12.472;2023-01-24T00:25:21;51.30;2227.20
26272;DHT22;13997;48.902;12.472;2023-01-24T00:27:47;51.30;2227.20
26272;DHT22;13997;48.902;12.472;2023-01-24T00:30:12;51.30;2227.20
26272;DHT22;13997;48.902;12.472;2023-01-24T00:32:38;51.30;2227.20
26272;DHT22;13997;48.902;12.472;2023-01-24T00:35:04;51.30;2227.20
26272;DHT22;13997;48.902;12.472;2023-01-24T00:37:30;51.30;2227.20
26272;DHT22;13997;48.902;12.472;2023-01-24T00:39:55;51.40;2227.20
26272;DHT22;13997;48.902;12.472;2023-01-24T00:42:21;51.40;2227.20
26272;DHT22;13997;48.902;12.472;2023-01-24T00:44:46;51.40;2227.20
26272;DHT22;13997;48.902;12.472;2023-01-24T00:47:12;51.40;2227.20
26272;DHT22;13997;48.902;12.472;2023-01-24T00:49:37;51.40;2227.20
26272;DHT22;13997;48.902;12.472;2023-01-24T00:52:03;51.50;2227.20
26272;DHT22;13997;48.902;12.472;2023-01-24T00:54:29;51.40;2227.20
26272;DHT22;13997;48.902;12.472;2023-01-24T00:56:54;51.50;2227.20
26272;DHT22;13997;48.902;12.472;2023-01-24T00:59:20;51.50;2227.20
26272;DHT22;13997;48.902;12.472;2023-01-24T01:01:46;51.50;2227.20
26272;DHT22;13997;48.902;12.472;2023-01-24T01:04:11;51.50;2227.20
26272;DHT22;13997;48.902;12.472;2023-01-24T01:06:37;51.60;2227.20
26272;DHT22;13997;48.902;12.472;2023-01-24T01:09:03;51.60;2227.20
26272;DHT22;13997;48.902;12.472;2023-01-24T01:11:29;51.60;2227.20
26272;DHT22;13997;48.902;12.472;2023-01-24T01:13:57;51.60;2227.20
26272;DHT22;13997;48.902;12.472;2023-01-24T01:16:24;51.60;2227.20
26272;DHT22;13997;48.902;12.472;2023-01-24T01:18:53;51.70;2227.20
26272;DHT22;13997;48.902;12.472;2023-01-24T01:21:21;51.70;2227.20
26272;DHT22;13997;48.902;12.472;2023-01-24T01:23:47;51.70;2227.20
26272;DHT22;13997;48.902;12.472;2023-01-24T01:26:18;51.70;2227.20
26272;DHT22;13997;48.902;12.472;2023-01-24T01:28:44;51.70;2227.20
26272;DHT22;13997;48.902;12.472;2023-01-24T01:31:11;51.70;2227.20
26272;DHT22;13997;48.902;12.472;2023-01-24T01:33:37;51.80;2227.20
26272;DHT22;13997;48.902;12.472;2023-01-24T01:36:03;51.80;2227.20
26272;DHT22;13997;48.902;12.472;2023-01-24T01:38:28;51.80;2227.20
26272;DHT22;13997;48.902;12.472;2023-01-24T01:40:55;51.80;2227.20
26272;DHT22;13997;48.902;12.472;2023-01-24T01:43:23;51.80;2227.20
26272;DHT22;13997;48.902;12.472;2023-01-24T01:45:50;51.80;2227.20
26272;DHT22;13997;48.902;12.472;2023-01-24T01:50:53;51.80;2227.20
26272;DHT22;13997;48.902;12.472;2023-01-24T01:53:22;51.80;2227.20
26272;DHT22;13997;48.902;12.472;2023-01-24T01:55:55;51.80;2227.20
26272;DHT22;13997;48.902;12.472;2023-01-24T01:58:22;51.80;2227.20
26272;DHT22;13997;48.902;12.472;2023-01-24T02:00:48;51.80;2227.20
26272;DHT22;13997;48.902;12.472;2023-01-24T02:03:19;51.80;2227.20
26272;DHT22;13997;48.902;12.472;2023-01-24T02:06:15;51.80;2227.20
26272;DHT22;13997;48.902;12.472;2023-01-24T02:08:44;51.80;2227.20
26272;DHT22;13997;48.902;12.472;2023-01-24T02:11:11;51.80;2227.20
26272;DHT22;13997;48.902;12.472;2023-01-24T02:13:57;51.80;2227.20
26272;DHT22;13997;48.902;12.472;2023-01-24T02:16:43;51.80;2227.20
26272;DHT22;13997;48.902;12.472;2023-01-24T02:19:16;51.80;2227.20
26272;DHT22;13997;48.902;12.472;2023-01-24T02:21:46;51.80;2227.20
26272;DHT22;13997;48.902;12.472;2023-01-24T02:24:25;51.80;2227.20
26272;DHT22;13997;48.902;12.472;2023-01-24T02:26:54;51.80;2227.20
26272;DHT22;13997;48.902;12.472;2023-01-24T02:29:20;51.80;2227.20
26272;DHT22;13997;48.902;12.472;2023-01-24T02:32:06;51.80;2227.20
26272;DHT22;13997;48.902;12.472;2023-01-24T02:34:31;51.80;2227.20
26272;DHT22;13997;48.902;12.472;2023-01-24T02:37:04;51.70;2227.20
26272;DHT22;13997;48.902;12.472;2023-01-24T02:39:58;51.70;2227.20
26272;DHT22;13997;48.902;12.472;2023-01-24T02:42:29;51.70;2227.20
26272;DHT22;13997;48.902;12.472;2023-01-24T02:45:02;51.70;2227.20
26272;DHT22;13997;48.902;12.472;2023-01-24T02:47:35;51.60;2227.20
26272;DHT22;13997;48.902;12.472;2023-01-24T02:50:04;51.60;2227.20
26272;DHT22;13997;48.902;12.472;2023-01-24T02:52:30;51.60;2227.20
26272;DHT22;13997;48.902;12.472;2023-01-24T02:55:15;51.50;2227.20
26272;DHT22;13997;48.902;12.472;2023-01-24T02:57:40;51.40;2227.20
26272;DHT22;13997;48.902;12.472;2023-01-24T03:00:25;51.30;2227.20
26272;DHT22;13997;48.902;12.472;2023-01-24T03:02:50;51.20;2227.20
26272;DHT22;13997;48.902;12.472;2023-01-24T03:05:16;51.20;2227.20
26272;DHT22;13997;48.902;12.472;2023-01-24T03:07:41;26.50;2201.60
26272;DHT22;13997;48.902;12.472;2023-01-24T03:10:10;26.50;2201.60
26272;DHT22;13997;48.902;12.472;2023-01-24T03:12:37;26.50;2201.60
26272;DHT22;13997;48.902;12.472;2023-01-24T03:15:21;26.40;2201.60
26272;DHT22;13997;48.902;12.472;2023-01-24T03:18:05;26.30;2201.60
26272;DHT22;13997;48.902;12.472;2023-01-24T03:20:50;26.20;2201.60
26272;DHT22;13997;48.902;12.472;2023-01-24T03:23:33;26.10;2201.60
26272;DHT22;13997;48.902;12.472;2023-01-24T03:26:18;26.10;2201.60
26272;DHT22;13997;48.902;12.472;2023-01-24T03:29:02;26.10;2201.60
26272;DHT22;13997;48.902;12.472;2023-01-24T03:31:46;26.10;2201.60
26272;DHT22;13997;48.902;12.472;2023-01-24T03:34:30;26.10;2201.60
26272;DHT22;13997;48.902;12.472;2023-01-24T03:37:12;26.10;2201.60
26272;DHT22;13997;48.902;12.472;2023-01-24T03:39:38;26.20;2201.60
26272;DHT22;13997;48.902;12.472;2023-01-24T03:42:19;26.20;2201.60
26272;DHT22;13997;48.902;12.472;2023-01-24T03:44:44;26.20;2201.60
26272;DHT22;13997;48.902;12.472;2023-01-24T03:47:10;26.30;2201.60
26272;DHT22;13997;48.902;12.472;2023-01-24T03:49:35;26.30;2201.60
26272;DHT22;13997;48.902;12.472;2023-01-24T03:52:20;26.20;2201.60
26272;DHT22;13997;48.902;12.472;2023-01-24T03:54:56;26.20;2201.60
26272;DHT22;13997;48.902;12.472;2023-01-24T03:57:22;26.20;2201.60
26272;DHT22;13997;48.902;12.472;2023-01-24T03:59:48;26.20;2201.60
26272;DHT22;13997;48.902;12.472;2023-01-24T04:02:14;26.20;2201.60
26272;DHT22;13997;48.902;12.472;2023-01-24T04:04:39;26.20;2201.60
26272;DHT22;13997;48.902;12.472;2023-01-24T04:07:23;26.20;2201.60
26272;DHT22;13997;48.902;12.472;2023-01-24T04:09:49;26.20;2201.60
26272;DHT22;13997;48.902;12.472;2023-01-24T04:12:15;26.10;2201.60
26272;DHT22;13997;48.902;12.472;2023-01-24T04:14:41;26.10;2201.60
26272;DHT22;13997;48.902;12.472;2023-01-24T04:17:08;26.00;2201.60
26272;DHT22;13997;48.902;12.472;2023-01-24T04:19:34;26.10;2201.60
26272;DHT22;13997;48.902;12.472;2023-01-24T04:21:59;26.00;2201.60
26272;DHT22;13997;48.902;12.472;2023-01-24T04:24:25;26.00;2201.60
26272;DHT22;13997;48.902;12.472;2023-01-24T04:26:51;26.00;2201.60
26272;DHT22;13997;48.902;12.472;2023-01-24T04:29:16;26.00;2201.60
26272;DHT22;13997;48.902;12.472;2023-01-24T04:31:42;26.00;2201.60
26272;DHT22;13997;48.902;12.472;2023-01-24T04:34:08;26.00;2201.60
26272;DHT22;13997;48.902;12.472;2023-01-24T04:36:34;25.90;2201.60
26272;DHT22;13997;48.902;12.472;2023-01-24T04:38:59;25.90;2201.60
26272;DHT22;13997;48.902;12.472;2023-01-24T04:41:25;25.90;2201.60
26272;DHT22;13997;48.902;12.472;2023-01-24T04:43:51;25.90;2201.60
26272;DHT22;13997;48.902;12.472;2023-01-24T04:46:17;26.00;2201.60
26272;DHT22;13997;48.902;12.472;2023-01-24T04:48:42;26.00;2201.60
26272;DHT22;13997;48.902;12.472;2023-01-24T04:51:08;26.00;2201.60
26272;DHT22;13997;48.902;12.472;2023-01-24T04:53:38;25.90;2201.60
26272;DHT22;13997;48.902;12.472;2023-01-24T04:56:04;25.90;2201.60
26272;DHT22;13997;48.902;12.472;2023-01-24T04:58:32;25.90;2201.60
26272;DHT22;13997;48.902;12.472;2023-01-24T05:00:58;25.90;2201.60
26272;DHT22;13997;48.902;12.472;2023-01-24T05:03:23;25.90;2201.60
26272;DHT22;13997;48.902;12.472;2023-01-24T05:05:50;26.00;2201.60
26272;DHT22;13997;48.902;12.472;2023-01-24T05:08:16;26.00;2201.60
26272;DHT22;13997;48.902;12.472;2023-01-24T05:10:41;26.00;2201.60
26272;DHT22;13997;48.902;12.472;2023-01-24T05:13:07;26.00;2201.60
26272;DHT22;13997;48.902;12.472;2023-01-24T05:15:32;26.00;2201.60
26272;DHT22;13997;48.902;12.472;2023-01-24T05:17:58;26.00;2201.60
26272;DHT22;13997;48.902;12.472;2023-01-24T05:20:24;26.10;2201.60
26272;DHT22;13997;48.902;12.472;2023-01-24T05:22:49;26.10;2201.60
26272;DHT22;13997;48.902;12.472;2023-01-24T05:25:15;26.10;2201.60
26272;DHT22;13997;48.902;12.472;2023-01-24T05:27:42;26.00;2201.60
26272;DHT22;13997;48.902;12.472;2023-01-24T05:30:08;26.10;2201.60
26272;DHT22;13997;48.902;12.472;2023-01-24T05:32:33;26.10;2201.60
26272;DHT22;13997;48.902;12.472;2023-01-24T05:34:59;26.10;2201.60
26272;DHT22;13997;48.902;12.472;2023-01-24T05:37:24;26.00;2201.60
26272;DHT22;13997;48.902;12.472;2023-01-24T05:39:50;26.00;2201.60
26272;DHT22;13997;48.902;12.472;2023-01-24T05:42:15;26.00;2201.60
26272;DHT22;13997;48.902;12.472;2023-01-24T05:44:41;26.00;2201.60
26272;DHT22;13997;48.902;12.472;2023-01-24T05:47:06;26.00;2201.60
26272;DHT22;13997;48.902;12.472;2023-01-24T05:49:32;26.00;2201.60
26272;DHT22;13997;48.902;12.472;2023-01-24T05:51:57;26.10;2201.60
26272;DHT22;13997;48.902;12.472;2023-01-24T05:54:23;26.10;2201.60
26272;DHT22;13997;48.902;12.472;2023-01-24T05:56:49;26.20;2201.60
26272;DHT22;13997;48.902;12.472;2023-01-24T05:59:14;26.20;2201.60
26272;DHT22;13997;48.902;12.472;2023-01-24T06:01:40;26.20;2201.60
26272;DHT22;13997;48.902;12.472;2023-01-24T06:04:05;26.20;2201.60
26272;DHT22;13997;48.902;12.472;2023-01-24T06:06:31;26.20;2201.60
26272;DHT22;13997;48.902;12.472;2023-01-24T06:08:56;26.30;2201.60
26272;DHT22;13997;48.902;12.472;2023-01-24T06:11:25;26.20;2201.60
26272;DHT22;13997;48.902;12.472;2023-01-24T06:13:53;26.20;2201.60
26272;DHT22;13997;48.902;12.472;2023-01-24T06:16:21;26.20;2201.60
26272;DHT22;13997;48.902;12.472;2023-01-24T06:18:48;26.20;2201.60
26272;DHT22;13997;48.902;12.472;2023-01-24T06:21:48;26.20;2201.60
26272;DHT22;13997;48.902;12.472;2023-01-24T06:24:23;26.20;2201.60
26272;DHT22;13997;48.902;12.472;2023-01-24T06:26:49;26.20;2201.60
26272;DHT22;13997;48.902;12.472;2023-01-24T06:29:16;26.20;2201.60
26272;DHT22;13997;48.902;12.472;2023-01-24T06:32:03;26.30;2201.60
26272;DHT22;13997;48.902;12.472;2023-01-24T06:34:57;26.30;2201.60
26272;DHT22;13997;48.902;12.472;2023-01-24T06:37:49;26.40;2201.60
26272;DHT22;13997;48.902;12.472;2023-01-24T06:40:18;26.40;2201.60
26272;DHT22;13997;48.902;12.472;2023-01-24T06:42:45;26.50;2201.60
26272;DHT22;13997;48.902;12.472;2023-01-24T06:45:11;26.50;2201.60
26272;DHT22;13997;48.902;12.472;2023-01-24T06:47:37;26.50;2201.60
26272;DHT22;13997;48.902;12.472;2023-01-24T06:50:03;26.50;2201.60
26272;DHT22;13997;48.902;12.472;2023-01-24T06:52:30;26.50;2201.60
26272;DHT22;13997;48.902;12.472;2023-01-24T06:54:56;26.50;2201.60
26272;DHT22;13997;48.902;12.472;2023-01-24T06:57:21;26.50;2201.60
26272;DHT22;13997;48.902;12.472;2023-01-24T06:59:47;26.50;2201.60
26272;DHT22;13997;48.902;12.472;2023-01-24T07:02:12;26.50;2201.60
26272;DHT22;13997;48.902;12.472;2023-01-24T07:04:38;26.50;2201.60
26272;DHT22;13997;48.902;12.472;2023-01-24T07:07:04;26.50;2201.60
26272;DHT22;13997;48.902;12.472;2023-01-24T07:09:31;51.20;2227.20
26272;DHT22;13997;48.902;12.472;2023-01-24T07:11:57;51.20;2227.20
26272;DHT22;13997;48.902;12.472;2023-01-24T07:14:24;51.20;2227.20
26272;DHT22;13997;48.902;12.472;2023-01-24T07:16:50;51.20;2227.20
26272;DHT22;13997;48.902;12.472;2023-01-24T07:19:18;51.20;2227.20
26272;DHT22;13997;48.902;12.472;2023-01-24T07:21:44;51.20;2227.20
26272;DHT22;13997;48.902;12.472;2023-01-24T07:24:16;51.20;2227.20
26272;DHT22;13997;48.902;12.472;2023-01-24T07:26:41;51.20;2227.20
26272;DHT22;13997;48.902;12.472;2023-01-24T07:29:07;51.20;2227.20
26272;DHT22;13997;48.902;12.472;2023-01-24T07:31:33;51.30;2227.20
26272;DHT22;13997;48.902;12.472;2023-01-24T07:33:58;51.30;2227.20
26272;DHT22;13997;48.902;12.472;2023-01-24T07:36:24;51.40;2227.20
26272;DHT22;13997;48.902;12.472;2023-01-24T07:38:53;51.40;2227.20
26272;DHT22;13997;48.902;12.472;2023-01-24T07:41:19;51.40;2227.20
26272;DHT22;13997;48.902;12.472;2023-01-24T07:43:45;51.40;2227.20
26272;DHT22;13997;48.902;12.472;2023-01-24T07:46:10;51.50;2227.20
26272;DHT22;13997;48.902;12.472;2023-01-24T07:48:36;51.50;2227.20
26272;DHT22;13997;48.902;12.472;2023-01-24T07:51:02;51.50;2227.20
26272;DHT22;13997;48.902;12.472;2023-01-24T07:53:28;51.50;2227.20
26272;DHT22;13997;48.902;12.472;2023-01-24T07:55:53;51.50;2227.20
26272;DHT22;13997;48.902;12.472;2023-01-24T07:58:19;51.60;2227.20
26272;DHT22;13997;48.902;12.472;2023-01-24T08:00:45;51.60;2227.20
26272;DHT22;13997;48.902;12.472;2023-01-24T08:03:11;51.70;2227.20
26272;DHT22;13997;48.902;12.472;2023-01-24T08:05:37;51.70;2227.20
26272;DHT22;13997;48.902;12.472;2023-01-24T08:08:03;51.80;2227.20
26272;DHT22;13997;48.902;12.472;2023-01-24T08:10:28;51.80;2227.20
26272;DHT22;13997;48.902;12.472;2023-01-24T08:12:55;51.80;2227.20
26272;DHT22;13997;48.902;12.472;2023-01-24T08:15:21;51.90;2227.20
26272;DHT22;13997;48.902;12.472;2023-01-24T08:17:46;51.90;2227.20
26272;DHT22;13997;48.902;12.472;2023-01-24T08:20:12;51.90;2227.20
26272;DHT22;13997;48.902;12.472;2023-01-24T08:22:39;51.90;2227.20
26272;DHT22;13997;48.902;12.472;2023-01-24T08:25:05;52.00;2227.20
26272;DHT22;13997;48.902;12.472;2023-01-24T08:27:31;52.10;2227.20
26272;DHT22;13997;48.902;12.472;2023-01-24T08:29:57;76.80;2227.20
26272;DHT22;13997;48.902;12.472;2023-01-24T08:32:22;76.90;2227.20
26272;DHT22;13997;48.902;12.472;2023-01-24T08:34:48;77.00;2227.20
26272;DHT22;13997;48.902;12.472;2023-01-24T08:37:14;77.10;2227.20
26272;DHT22;13997;48.902;12.472;2023-01-24T08:39:39;77.10;2227.20
26272;DHT22;13997;48.902;12.472;2023-01-24T08:42:05;77.10;2227.20
26272;DHT22;13997;48.902;12.472;2023-01-24T08:44:31;77.10;2227.20
26272;DHT22;13997;48.902;12.472;2023-01-24T08:46:57;77.10;2227.20
26272;DHT22;13997;48.902;12.472;2023-01-24T08:49:22;77.10;2227.20
26272;DHT22;13997;48.902;12.472;2023-01-24T08:51:48;77.00;2227.20
26272;DHT22;13997;48.902;12.472;2023-01-24T08:54:14;77.00;2227.20
26272;DHT22;13997;48.902;12.472;2023-01-24T08:56:40;77.10;2227.20
26272;DHT22;13997;48.902;12.472;2023-01-24T08:59:05;77.10;2227.20
26272;DHT22;13997;48.902;12.472;2023-01-24T09:01:31;77.10;2227.20
26272;DHT22;13997;48.902;12.472;2023-01-24T09:03:58;77.10;2227.20
26272;DHT22;13997;48.902;12.472;2023-01-24T09:06:25;77.20;2227.20
26272;DHT22;13997;48.902;12.472;2023-01-24T10:53:12;128.20;2252.80
26272;DHT22;13997;48.902;12.472;2023-01-24T10:55:39;128.30;2252.80
26272;DHT22;13997;48.902;12.472;2023-01-24T10:58:21;128.40;2252.80
26272;DHT22;13997;48.902;12.472;2023-01-24T11:00:56;128.40;2252.80
26272;DHT22;13997;48.902;12.472;2023-01-24T11:03:27;128.40;2252.80
26272;DHT22;13997;48.902;12.472;2023-01-24T11:05:56;128.50;2252.80
26272;DHT22;13997;48.902;12.472;2023-01-24T11:08:24;128.60;2252.80
26272;DHT22;13997;48.902;12.472;2023-01-24T11:10:55;128.60;2252.80
26272;DHT22;13997;48.902;12.472;2023-01-24T11:16:18;128.70;2252.80
26272;DHT22;13997;48.902;12.472;2023-01-24T11:18:59;128.60;2252.80
26272;DHT22;13997;48.902;12.472;2023-01-24T11:21:25;128.70;2252.80
26272;DHT22;13997;48.902;12.472;2023-01-24T11:24:11;128.60;2252.80
26272;DHT22;13997;48.902;12.472;2023-01-24T11:26:54;128.60;2252.80
26272;DHT22;13997;48.902;12.472;2023-01-24T11:29:20;128.60;2252.80
26272;DHT22;13997;48.902;12.472;2023-01-24T11:31:52;128.70;2252.80
26272;DHT22;13997;48.902;12.472;2023-01-24T11:34:36;128.70;2252.80
26272;DHT22;13997;48.902;12.472;2023-01-24T11:39:35;128.80;2252.80
26272;DHT22;13997;48.902;12.472;2023-01-24T11:47:33;128.80;2252.80
26272;DHT22;13997;48.902;12.472;2023-01-24T11:50:15;128.90;2252.80
26272;DHT22;13997;48.902;12.472;2023-01-24T11:59:07;153.90;2252.80
26272;DHT22;13997;48.902;12.472;2023-01-24T12:12:41;154.10;2252.80
26272;DHT22;13997;48.902;12.472;2023-01-24T12:15:24;154.10;2252.80
26272;DHT22;13997;48.902;12.472;2023-01-24T12:23:18;154.30;2252.80
26272;DHT22;13997;48.902;12.472;2023-01-24T12:25:46;154.30;2252.80
26272;DHT22;13997;48.902;12.472;2023-01-24T12:28:27;154.40;2252.80
26272;DHT22;13997;48.902;12.472;2023-01-24T12:30:57;154.50;2252.80
26272;DHT22;13997;48.902;12.472;2023-01-24T12:33:34;154.50;2252.80
26272;DHT22;13997;48.902;12.472;2023-01-24T12:36:39;179.20;2252.80
26272;DHT22;13997;48.902;12.472;2023-01-24T12:39:15;179.30;2252.80
26272;DHT22;13997;48.902;12.472;2023-01-24T12:41:51;179.20;2252.80
26272;DHT22;13997;48.902;12.472;2023-01-24T12:44:29;179.20;2252.80
26272;DHT22;13997;48.902;12.472;2023-01-24T12:52:33;154.40;2252.80
26272;DHT22;13997;48.902;12.472;2023-01-24T12:57:49;154.30;2252.80
26272;DHT22;13997;48.902;12.472;2023-01-24T13:00:21;154.20;2252.80
26272;DHT22;13997;48.902;12.472;2023-01-24T13:13:54;154.00;2252.80
26272;DHT22;13997;48.902;12.472;2023-01-24T13:19:39;154.00;2252.80
26272;DHT22;13997;48.902;12.472;2023-01-24T13:30:55;153.90;2252.80
26272;DHT22;13997;48.902;12.472;2023-01-24T13:36:06;153.80;2252.80
26272;DHT22;13997;48.902;12.472;2023-01-24T13:38:42;153.70;2252.80
26272;DHT22;13997;48.902;12.472;2023-01-24T13:41:14;153.70;2252.80
26272;DHT22;13997;48.902;12.472;2023-01-24T13:46:12;153.60;2252.80
26272;DHT22;13997;48.902;12.472;2023-01-24T13:54:06;128.50;2252.80
26272;DHT22;13997;48.902;12.472;2023-01-24T13:59:35;128.20;2252.80
26272;DHT22;13997;48.902;12.472;2023-01-24T14:02:02;128.10;2252.80
26272;DHT22;13997;48.902;12.472;2023-01-24T14:04:42;128.00;2252.80
26272;DHT22;13997;48.902;12.472;2023-01-24T14:07:38;128.00;2252.80
26272;DHT22;13997;48.902;12.472;2023-01-24T14:10:06;103.30;2227.20
26272;DHT22;13997;48.902;12.472;2023-01-24T14:12:37;103.30;2227.20
26272;DHT22;13997;48.902;12.472;2023-01-24T14:23:09;103.20;2227.20
26272;DHT22;13997;48.902;12.472;2023-01-24T14:25:46;103.10;2227.20
26272;DHT22;13997;48.902;12.472;2023-01-24T14:30:51;103.10;2227.20
26272;DHT22;13997;48.902;12.472;2023-01-24T14:33:31;103.10;2227.20
26272;DHT22;13997;48.902;12.472;2023-01-24T14:36:05;103.00;2227.20
26272;DHT22;13997;48.902;12.472;2023-01-24T14:38:32;103.00;2227.20
26272;DHT22;13997;48.902;12.472;2023-01-24T14:40:58;103.00;2227.20
26272;DHT22;13997;48.902;12.472;2023-01-24T14:43:33;103.00;2227.20
26272;DHT22;13997;48.902;12.472;2023-01-24T14:46:09;103.00;2227.20
26272;DHT22;13997;48.902;12.472;2023-01-24T14:48:35;102.80;2227.20
26272;DHT22;13997;48.902;12.472;2023-01-24T14:51:06;102.80;2227.20
26272;DHT22;13997;48.902;12.472;2023-01-24T14:53:32;102.70;2227.20
26272;DHT22;13997;48.902;12.472;2023-01-24T14:56:09;102.70;2227.20
26272;DHT22;13997;48.902;12.472;2023-01-24T14:58:39;102.70;2227.20
26272;DHT22;13997;48.902;12.472;2023-01-24T15:01:23;102.60;2227.20
26272;DHT22;13997;48.902;12.472;2023-01-24T15:03:49;102.60;2227.20
26272;DHT22;13997;48.902;12.472;2023-01-24T15:06:18;102.50;2227.20
26272;DHT22;13997;48.902;12.472;2023-01-24T15:08:44;102.50;2227.20
26272;DHT22;13997;48.902;12.472;2023-01-24T15:11:28;102.50;2227.20
26272;DHT22;13997;48.902;12.472;2023-01-24T15:14:02;102.50;2227.20
26272;DHT22;13997;48.902;12.472;2023-01-24T15:16:45;102.40;2227.20
26272;DHT22;13997;48.902;12.472;2023-01-24T15:19:24;102.40;2227.20
26272;DHT22;13997;48.902;12.472;2023-01-24T15:21:51;102.40;2227.20
26272;DHT22;13997;48.902;12.472;2023-01-24T15:24:26;102.40;2227.20
26272;DHT22;13997;48.902;12.472;2023-01-24T15:26:53;102.40;2227.20
26272;DHT22;13997;48.902;12.472;2023-01-24T15:35:23;77.50;2227.20
26272;DHT22;13997;48.902;12.472;2023-01-24T15:40:29;77.40;2227.20
26272;DHT22;13997;48.902;12.472;2023-01-24T15:42:55;77.40;2227.20
26272;DHT22;13997;48.902;12.472;2023-01-24T15:45:51;77.40;2227.20
26272;DHT22;13997;48.902;12.472;2023-01-24T15:48:36;77.40;2227.20
26272;DHT22;13997;48.902;12.472;2023-01-24T15:51:02;77.30;2227.20
26272;DHT22;13997;48.902;12.472;2023-01-24T16:27:59;76.90;2227.20
26272;DHT22;13997;48.902;12.472;2023-01-24T16:30:25;76.90;2227.20
26272;DHT22;13997;48.902;12.472;2023-01-24T16:32:52;76.90;2227.20
26272;DHT22;13997;48.902;12.472;2023-01-24T16:35:18;76.80;2227.20
26272;DHT22;13997;48.902;12.472;2023-01-24T16:37:44;52.10;2227.20
26272;DHT22;13997;48.902;12.472;2023-01-24T16:40:12;52.10;2227.20
26272;DHT22;13997;48.902;12.472;2023-01-24T16:42:40;52.00;2227.20
26272;DHT22;13997;48.902;12.472;2023-01-24T16:45:13;52.00;2227.20
26272;DHT22;13997;48.902;12.472;2023-01-24T16:47:38;52.00;2227.20
26272;DHT22;13997;48.902;12.472;2023-01-24T16:50:04;52.00;2227.20
26272;DHT22;13997;48.902;12.472;2023-01-24T16:52:30;52.00;2227.20
26272;DHT22;13997;48.902;12.472;2023-01-24T16:54:55;51.90;2227.20
26272;DHT22;13997;48.902;12.472;2023-01-24T16:57:22;51.80;2227.20
26272;DHT22;13997;48.902;12.472;2023-01-24T16:59:48;51.80;2227.20
26272;DHT22;13997;48.902;12.472;2023-01-24T17:02:14;51.80;2227.20
26272;DHT22;13997;48.902;12.472;2023-01-24T17:04:40;51.70;2227.20
26272;DHT22;13997;48.902;12.472;2023-01-24T17:07:05;51.60;2227.20
26272;DHT22;13997;48.902;12.472;2023-01-24T17:09:32;51.60;2227.20
26272;DHT22;13997;48.902;12.472;2023-01-24T17:11:59;51.50;2227.20
26272;DHT22;13997;48.902;12.472;2023-01-24T17:14:24;51.50;2227.20
26272;DHT22;13997;48.902;12.472;2023-01-24T17:16:50;51.50;2227.20
26272;DHT22;13997;48.902;12.472;2023-01-24T17:19:16;51.40;2227.20
26272;DHT22;13997;48.902;12.472;2023-01-24T17:21:42;51.40;2227.20
26272;DHT22;13997;48.902;12.472;2023-01-24T17:24:07;51.40;2227.20
26272;DHT22;13997;48.902;12.472;2023-01-24T17:26:33;51.30;2227.20
26272;DHT22;13997;48.902;12.472;2023-01-24T17:28:59;51.20;2227.20
26272;DHT22;13997;48.902;12.472;2023-01-24T17:31:25;26.50;2201.60
26272;DHT22;13997;48.902;12.472;2023-01-24T17:33:52;26.40;2201.60
26272;DHT22;13997;48.902;12.472;2023-01-24T17:36:18;26.40;2201.60
26272;DHT22;13997;48.902;12.472;2023-01-24T17:38:44;26.40;2201.60
26272;DHT22;13997;48.902;12.472;2023-01-24T17:41:14;26.30;2201.60
26272;DHT22;13997;48.902;12.472;2023-01-24T17:43:40;26.30;2201.60
26272;DHT22;13997;48.902;12.472;2023-01-24T17:46:06;26.30;2201.60
26272;DHT22;13997;48.902;12.472;2023-01-24T17:48:32;26.30;2201.60
26272;DHT22;13997;48.902;12.472;2023-01-24T17:50:57;26.20;2201.60
26272;DHT22;13997;48.902;12.472;2023-01-24T17:53:23;26.30;2201.60
26272;DHT22;13997;48.902;12.472;2023-01-24T17:55:53;26.30;2201.60
26272;DHT22;13997;48.902;12.472;2023-01-24T17:58:20;26.30;2201.60
26272;DHT22;13997;48.902;12.472;2023-01-24T18:00:45;26.30;2201.60
26272;DHT22;13997;48.902;12.472;2023-01-24T18:03:11;26.30;2201.60
26272;DHT22;13997;48.902;12.472;2023-01-24T18:05:39;26.30;2201.60
26272;DHT22;13997;48.902;12.472;2023-01-24T18:08:05;26.30;2201.60
26272;DHT22;13997;48.902;12.472;2023-01-24T18:10:31;26.40;2201.60
26272;DHT22;13997;48.902;12.472;2023-01-24T18:12:57;26.40;2201.60
26272;DHT22;13997;48.902;12.472;2023-01-24T18:15:22;26.40;2201.60
26272;DHT22;13997;48.902;12.472;2023-01-24T18:17:48;26.40;2201.60
26272;DHT22;13997;48.902;12.472;2023-01-24T18:20:14;26.40;2201.60
26272;DHT22;13997;48.902;12.472;2023-01-24T18:22:41;26.40;2201.60
26272;DHT22;13997;48.902;12.472;2023-01-24T18:25:08;26.40;2201.60
26272;DHT22;13997;48.902;12.472;2023-01-24T18:27:34;26.40;2201.60
26272;DHT22;13997;48.902;12.472;2023-01-24T18:30:00;26.50;2201.60
26272;DHT22;13997;48.902;12.472;2023-01-24T18:32:25;26.50;2201.60
26272;DHT22;13997;48.902;12.472;2023-01-24T18:34:51;51.20;2227.20
26272;DHT22;13997;48.902;12.472;2023-01-24T18:37:16;51.20;2227.20
26272;DHT22;13997;48.902;12.472;2023-01-24T18:39:42;51.20;2227.20
26272;DHT22;13997;48.902;12.472;2023-01-24T18:42:08;51.20;2227.20
26272;DHT22;13997;48.902;12.472;2023-01-24T18:44:33;51.30;2227.20
26272;DHT22;13997;48.902;12.472;2023-01-24T18:47:00;51.30;2227.20
26272;DHT22;13997;48.902;12.472;2023-01-24T18:49:26;51.30;2227.20
26272;DHT22;13997;48.902;12.472;2023-01-24T18:51:51;51.30;2227.20
26272;DHT22;13997;48.902;12.472;2023-01-24T18:54:17;51.30;2227.20
26272;DHT22;13997;48.902;12.472;2023-01-24T18:56:43;51.40;2227.20